Time;durP1;ratioP1;P1;durP2;ratioP2;P2;SDS_P1;SDS_P2;PMS_P1;PMS_P2;Temp;Humidity;BMP_temperature;BMP_pressure;BME280_temperature;BME280_humidity;BME280_pressure;Samples;Min_cycle;Max_cycle;Signal;HPM_P1;HPM_P2
2021/06/19 00:01:12;;;;;;;4.88;3.70;;;;;;;;;;8305147;28;20070;-67
2021/06/19 00:05:19;;;;;;;8.32;3.33;;;;;;;;;;8322460;28;20382;-68
2021/06/19 00:09:24;;;;;;;5.90;3.50;;;;;;;;;;8322641;28;20106;-67
2021/06/19 00:13:30;;;;;;;6.03;3.40;;;;;;;;;;8323481;28;20466;-67
2021/06/19 00:17:36;;;;;;;6.53;3.63;;;;;;;;;;8321063;28;20382;-66
2021/06/19 00:21:42;;;;;;;3.78;3.05;;;;;;;;;;8322446;28;20394;-68
2021/06/19 00:25:47;;;;;;;4.70;3.60;;;;;;;;;;8323652;28;20375;-67
2021/06/19 00:29:53;;;;;;;10.63;3.80;;;;;;;;;;8321867;28;20364;-67
2021/06/19 00:33:59;;;;;;;7.40;3.45;;;;;;;;;;8320785;28;20344;-66
2021/06/19 00:38:04;;;;;;;7.18;3.60;;;;;;;;;;8324498;28;20465;-67
2021/06/19 00:42:10;;;;;;;6.82;3.72;;;;;;;;;;8322689;28;20386;-66
2021/06/19 00:46:15;;;;;;;12.77;3.30;;;;;;;;;;8323346;28;20374;-67
2021/06/19 00:50:23;;;;;;;5.25;3.47;;;;;;;;;;8347870;28;20489;-68
2021/06/19 00:54:27;;;;;;;11.65;3.78;;;;;;;;;;8360016;28;20113;-67
2021/06/19 00:58:34;;;;;;;10.30;3.83;;;;;;;;;;8362639;28;20493;-67
2021/06/19 01:02:40;;;;;;;4.47;3.17;;;;;;;;;;8360092;28;20382;-68
2021/06/19 01:06:45;;;;;;;6.20;3.40;;;;;;;;;;8363502;28;20044;-66
2021/06/19 01:10:55;;;;;;;5.75;3.50;;;;;;;;;;8361221;28;20485;-68
2021/06/19 01:15:00;;;;;;;5.85;3.70;;;;;;;;;;8363536;28;20472;-68
2021/06/19 01:19:06;;;;;;;5.90;3.70;;;;;;;;;;8358204;28;20380;-67
2021/06/19 01:23:11;;;;;;;11.18;4.03;;;;;;;;;;8360953;28;20431;-68
2021/06/19 01:27:16;;;;;;;5.72;3.25;;;;;;;;;;8363508;28;20470;-67
2021/06/19 01:31:23;;;;;;;4.68;3.03;;;;;;;;;;8361485;28;20484;-68
2021/06/19 01:35:28;;;;;;;4.57;3.28;;;;;;;;;;8361032;28;20389;-67
2021/06/19 01:39:34;;;;;;;6.85;3.55;;;;;;;;;;8361561;28;20482;-67
2021/06/19 01:43:40;;;;;;;12.88;4.00;;;;;;;;;;8360838;28;20488;-67
2021/06/19 01:47:46;;;;;;;4.70;3.40;;;;;;;;;;8359124;28;20074;-67
2021/06/19 01:51:52;;;;;;;5.30;3.53;;;;;;;;;;8360828;27;20363;-67
2021/06/19 01:55:57;;;;;;;6.53;3.58;;;;;;;;;;8360370;28;20467;-67
2021/06/19 02:00:12;;;;;;;5.03;3.45;;;;;;;;;;8360626;28;20462;-67
2021/06/19 02:04:23;;;;;;;5.43;3.08;;;;;;;;;;8359818;28;20332;-67
2021/06/19 02:08:28;;;;;;;6.32;3.38;;;;;;;;;;8359602;28;20378;-68
2021/06/19 02:12:33;;;;;;;5.32;3.53;;;;;;;;;;8359951;28;20490;-67
2021/06/19 02:16:39;;;;;;;3.42;2.70;;;;;;;;;;8358801;28;20283;-67
2021/06/19 02:20:47;;;;;;;4.10;3.33;;;;;;;;;;8358523;28;20087;-67
2021/06/19 02:24:52;;;;;;;;;;;;;;;;;;8359323;28;20481;-67
2021/06/19 02:28:57;;;;;;;4.82;3.20;;;;;;;;;;8358739;28;20235;-67
2021/06/19 02:33:03;;;;;;;9.43;4.05;;;;;;;;;;8359582;28;20047;-67
2021/06/19 02:37:09;;;;;;;4.47;3.40;;;;;;;;;;8359598;28;20450;-67
2021/06/19 02:41:14;;;;;;;3.75;2.80;;;;;;;;;;8356506;28;20386;-67
2021/06/19 02:45:21;;;;;;;5.07;4.10;;;;;;;;;;8361036;28;20378;-66
2021/06/19 02:49:26;;;;;;;5.50;3.53;;;;;;;;;;8357844;28;20047;-67
2021/06/19 02:53:32;;;;;;;22.92;12.68;;;;;;;;;;8359716;28;20351;-67
2021/06/19 02:57:37;;;;;;;40.97;27.23;;;;;;;;;;8358831;27;20391;-67
2021/06/19 03:01:44;;;;;;;27.38;17.98;;;;;;;;;;8359190;28;20043;-69
2021/06/19 03:05:50;;;;;;;30.48;20.83;;;;;;;;;;8357764;27;20484;-68
2021/06/19 03:09:56;;;;;;;16.10;10.57;;;;;;;;;;8357501;28;20409;-67
2021/06/19 03:14:02;;;;;;;5.38;3.90;;;;;;;;;;8356563;28;20350;-67
2021/06/19 03:18:07;;;;;;;6.28;3.60;;;;;;;;;;8356598;28;20454;-67
2021/06/19 03:22:14;;;;;;;8.38;3.40;;;;;;;;;;8340370;28;20055;-67
2021/06/19 03:26:19;;;;;;;7.70;4.43;;;;;;;;;;8357732;28;20398;-67
2021/06/19 03:30:26;;;;;;;5.90;3.60;;;;;;;;;;8359145;28;20493;-67
2021/06/19 03:34:30;;;;;;;7.43;4.45;;;;;;;;;;8355612;28;20477;-67
2021/06/19 03:38:36;;;;;;;5.22;3.33;;;;;;;;;;8356620;28;20470;-67
2021/06/19 03:42:41;;;;;;;5.95;3.72;;;;;;;;;;8355847;28;20052;-67
2021/06/19 03:46:46;;;;;;;8.82;3.67;;;;;;;;;;8355871;28;20622;-67
2021/06/19 03:50:52;;;;;;;5.85;3.08;;;;;;;;;;8355368;28;20354;-67
2021/06/19 03:54:57;;;;;;;4.35;3.50;;;;;;;;;;8354358;28;20462;-67
2021/06/19 03:59:03;;;;;;;5.32;3.35;;;;;;;;;;8357245;28;20473;-66
2021/06/19 04:03:08;;;;;;;7.60;3.60;;;;;;;;;;8357301;28;20470;-66
2021/06/19 04:07:14;;;;;;;12.75;3.45;;;;;;;;;;8355626;28;20455;-66
2021/06/19 04:11:20;;;;;;;6.40;3.47;;;;;;;;;;8356680;28;20378;-67
2021/06/19 04:15:25;;;;;;;4.80;3.45;;;;;;;;;;8356472;28;20387;-67
2021/06/19 04:19:31;;;;;;;9.52;3.70;;;;;;;;;;8355641;28;20458;-67
2021/06/19 04:23:36;;;;;;;9.63;3.60;;;;;;;;;;8357240;28;20411;-67
2021/06/19 04:27:53;;;;;;;4.70;3.40;;;;;;;;;;8357646;28;20051;-67
2021/06/19 04:32:05;;;;;;;5.97;3.33;;;;;;;;;;8362261;28;20493;-67
2021/06/19 04:36:12;;;;;;;6.50;3.20;;;;;;;;;;8364897;28;20472;-66
2021/06/19 04:40:26;;;;;;;9.48;3.65;;;;;;;;;;8364641;28;20052;-67
2021/06/19 04:45:00;;;;;;;9.13;3.70;;;;;;;;;;8363654;28;20363;-67
2021/06/19 04:49:05;;;;;;;6.88;3.63;;;;;;;;;;8362233;28;20455;-67
2021/06/19 04:53:13;;;;;;;5.55;3.30;;;;;;;;;;8362074;28;20500;-67
2021/06/19 04:57:20;;;;;;;6.85;3.95;;;;;;;;;;8363230;28;20070;-67
2021/06/19 05:01:25;;;;;;;5.45;3.20;;;;;;;;;;8363220;28;20485;-67
2021/06/19 05:05:30;;;;;;;6.43;3.53;;;;;;;;;;8359752;28;20466;-66
2021/06/19 05:09:36;;;;;;;5.97;3.33;;;;;;;;;;8362707;28;20583;-67
2021/06/19 05:13:40;;;;;;;3.90;2.83;;;;;;;;;;8361408;28;20648;-67
2021/06/19 05:17:45;;;;;;;3.88;3.00;;;;;;;;;;8362066;28;20470;-67
2021/06/19 05:21:50;;;;;;;3.72;2.70;;;;;;;;;;8360803;28;20454;-68
2021/06/19 05:25:54;;;;;;;6.30;2.58;;;;;;;;;;8361709;28;20461;-67
2021/06/19 05:29:59;;;;;;;4.97;2.28;;;;;;;;;;8361089;28;20371;-68
2021/06/19 05:34:05;;;;;;;12.27;3.28;;;;;;;;;;8362510;28;20172;-67
2021/06/19 05:38:11;;;;;;;3.85;2.30;;;;;;;;;;8360510;28;20048;-67
2021/06/19 05:42:16;;;;;;;4.90;1.98;;;;;;;;;;8360250;28;20039;-67
2021/06/19 05:46:21;;;;;;;3.15;2.25;;;;;;;;;;8362387;28;20047;-68
2021/06/19 05:50:27;;;;;;;4.43;2.40;;;;;;;;;;8360372;28;20594;-67
2021/06/19 05:54:36;;;;;;;5.10;2.28;;;;;;;;;;8360384;28;20369;-67
2021/06/19 05:58:41;;;;;;;7.25;2.25;;;;;;;;;;8360912;28;20363;-69
2021/06/19 06:02:47;;;;;;;4.85;2.10;;;;;;;;;;8360851;28;20454;-68
2021/06/19 06:06:52;;;;;;;5.38;2.22;;;;;;;;;;8358630;28;20344;-67
2021/06/19 06:10:57;;;;;;;4.97;2.35;;;;;;;;;;8358978;28;20428;-67
2021/06/19 06:15:03;;;;;;;4.20;2.15;;;;;;;;;;8359933;28;20412;-69
2021/06/19 06:19:08;;;;;;;5.20;1.92;;;;;;;;;;8358743;28;20385;-67
2021/06/19 06:23:14;;;;;;;5.00;2.00;;;;;;;;;;8360577;28;20343;-67
2021/06/19 06:27:19;;;;;;;4.50;2.25;;;;;;;;;;8359351;28;20091;-67
2021/06/19 06:31:25;;;;;;;4.33;2.30;;;;;;;;;;8358846;28;20421;-68
2021/06/19 06:35:31;;;;;;;4.60;2.20;;;;;;;;;;8358885;28;20459;-67
2021/06/19 06:39:36;;;;;;;4.13;1.77;;;;;;;;;;8357766;28;20066;-68
2021/06/19 06:43:42;;;;;;;3.90;2.28;;;;;;;;;;8358881;28;20492;-67
2021/06/19 06:47:48;;;;;;;3.15;2.08;;;;;;;;;;8358808;28;20366;-68
2021/06/19 06:51:53;;;;;;;4.57;2.00;;;;;;;;;;8355568;28;20384;-67
2021/06/19 06:55:58;;;;;;;6.50;1.92;;;;;;;;;;8358053;28;20478;-68
2021/06/19 07:00:07;;;;;;;4.95;1.83;;;;;;;;;;8359287;28;20056;-68
2021/06/19 07:04:12;;;;;;;5.72;1.80;;;;;;;;;;8356471;28;20397;-68
2021/06/19 07:08:18;;;;;;;5.43;1.70;;;;;;;;;;8357463;28;20455;-68
2021/06/19 07:12:23;;;;;;;1.83;1.40;;;;;;;;;;8358512;28;20374;-68
2021/06/19 07:16:29;;;;;;;2.95;1.88;;;;;;;;;;8355151;28;20462;-68
2021/06/19 07:20:36;;;;;;;5.15;1.73;;;;;;;;;;8357100;28;20587;-68
2021/06/19 07:24:42;;;;;;;2.00;1.40;;;;;;;;;;8359191;28;20447;-68
2021/06/19 07:28:47;;;;;;;5.05;1.70;;;;;;;;;;8357524;28;20064;-67
2021/06/19 07:32:56;;;;;;;4.68;2.05;;;;;;;;;;8357060;28;20458;-68
2021/06/19 07:37:01;;;;;;;3.58;1.40;;;;;;;;;;8358951;28;20462;-68
2021/06/19 07:41:07;;;;;;;5.47;1.50;;;;;;;;;;8356745;28;20469;-67
2021/06/19 07:45:13;;;;;;;6.55;1.52;;;;;;;;;;8355703;28;20512;-68
2021/06/19 07:49:20;;;;;;;4.28;1.42;;;;;;;;;;8357062;28;20078;-67
2021/06/19 07:53:25;;;;;;;4.45;1.52;;;;;;;;;;8356502;28;20474;-69
2021/06/19 07:57:31;;;;;;;9.43;1.60;;;;;;;;;;8355678;28;20377;-68
2021/06/19 08:01:36;;;;;;;6.17;1.10;;;;;;;;;;8356885;28;20367;-68
2021/06/19 08:05:41;;;;;;;4.70;1.60;;;;;;;;;;8354243;28;20478;-68
2021/06/19 08:09:47;;;;;;;2.10;0.95;;;;;;;;;;8356816;28;20047;-69
2021/06/19 08:13:53;;;;;;;2.90;1.02;;;;;;;;;;8339454;28;20454;-68
2021/06/19 08:17:58;;;;;;;2.60;1.20;;;;;;;;;;8355643;28;20328;-67
2021/06/19 08:22:05;;;;;;;6.55;1.08;;;;;;;;;;8355814;28;20492;-67
2021/06/19 08:26:10;;;;;;;;;;;;;;;;;;8357298;28;20381;-68
2021/06/19 08:30:16;;;;;;;3.20;1.95;;;;;;;;;;8357834;28;20327;-68
2021/06/19 08:34:22;;;;;;;3.58;1.50;;;;;;;;;;8337979;28;20370;-68
2021/06/19 08:38:28;;;;;;;5.10;1.23;;;;;;;;;;8354976;28;20339;-67
2021/06/19 08:42:34;;;;;;;2.35;1.13;;;;;;;;;;8356179;28;20362;-67
2021/06/19 08:46:39;;;;;;;;;;;;;;;;;;8355991;28;20382;-67
2021/06/19 08:50:46;;;;;;;2.83;1.33;;;;;;;;;;8354820;28;20262;-68
2021/06/19 08:54:51;;;;;;;1.77;1.10;;;;;;;;;;8356121;28;20450;-68
2021/06/19 08:58:56;;;;;;;6.13;1.20;;;;;;;;;;8354638;28;20331;-67
2021/06/19 09:03:02;;;;;;;2.83;0.98;;;;;;;;;;8356118;28;20366;-68
2021/06/19 09:07:07;;;;;;;2.30;1.03;;;;;;;;;;8355755;28;20378;-67
2021/06/19 09:11:52;;;;;;;9.30;1.30;;;;;;;;;;8356337;28;20039;-68
2021/06/19 09:15:59;;;;;;;3.22;1.17;;;;;;;;;;8352565;28;20320;-68
2021/06/19 09:20:03;;;;;;;4.22;1.27;;;;;;;;;;8360969;28;20363;-68
2021/06/19 09:24:08;;;;;;;2.47;1.27;;;;;;;;;;8360675;28;20358;-67
2021/06/19 09:28:14;;;;;;;3.42;1.27;;;;;;;;;;8360893;28;20998;-69
2021/06/19 09:32:27;;;;;;;2.85;1.60;;;;;;;;;;8359893;28;20438;-68
2021/06/19 09:36:42;;;;;;;1.63;0.80;;;;;;;;;;8359668;28;20351;-67
2021/06/19 09:40:50;;;;;;;2.70;1.20;;;;;;;;;;8360673;28;20468;-69
2021/06/19 09:44:55;;;;;;;3.50;0.95;;;;;;;;;;8359513;28;20378;-68
2021/06/19 09:49:17;;;;;;;3.70;1.40;;;;;;;;;;8359064;28;20071;-68
2021/06/19 09:53:22;;;;;;;2.35;1.20;;;;;;;;;;8359488;28;20443;-68
2021/06/19 09:57:40;;;;;;;1.90;0.98;;;;;;;;;;8360610;28;20455;-67
2021/06/19 10:01:45;;;;;;;2.20;1.05;;;;;;;;;;8358733;28;20416;-68
2021/06/19 10:05:51;;;;;;;4.77;1.30;;;;;;;;;;8361165;28;20369;-68
2021/06/19 10:09:58;;;;;;;3.88;1.00;;;;;;;;;;8360492;28;20808;-67
2021/06/19 10:14:04;;;;;;;3.63;1.00;;;;;;;;;;8360201;28;20377;-68
2021/06/19 10:18:09;;;;;;;1.98;1.00;;;;;;;;;;8359146;28;20348;-67
2021/06/19 10:22:15;;;;;;;2.07;1.27;;;;;;;;;;8357984;28;20375;-67
2021/06/19 10:26:24;;;;;;;1.97;1.40;;;;;;;;;;8360491;28;20373;-68
2021/06/19 10:30:30;;;;;;;6.57;1.90;;;;;;;;;;8360660;28;20777;-67
2021/06/19 10:34:53;;;;;;;1.90;1.38;;;;;;;;;;8356651;28;20466;-67
2021/06/19 10:38:58;;;;;;;2.22;1.33;;;;;;;;;;8361032;28;20359;-68
2021/06/19 10:43:13;;;;;;;8.90;1.67;;;;;;;;;;8357848;28;20054;-67
2021/06/19 10:47:20;;;;;;;2.35;1.52;;;;;;;;;;8358167;28;20365;-67
2021/06/19 10:51:31;;;;;;;3.50;1.70;;;;;;;;;;8358684;28;20381;-68
2021/06/19 10:55:52;;;;;;;2.55;1.83;;;;;;;;;;8339981;28;20373;-68
2021/06/19 11:00:29;;;;;;;4.00;1.52;;;;;;;;;;8358440;28;20462;-68
2021/06/19 11:04:37;;;;;;;4.07;1.60;;;;;;;;;;8358289;28;20351;-68
2021/06/19 11:09:15;;;;;;;3.97;1.67;;;;;;;;;;8357917;28;20417;-68
2021/06/19 11:13:30;;;;;;;4.82;1.38;;;;;;;;;;8356310;28;20365;-68
2021/06/19 11:17:35;;;;;;;1.30;1.10;;;;;;;;;;8356344;28;20382;-68
2021/06/19 11:21:40;;;;;;;1.00;0.87;;;;;;;;;;8355989;28;20373;-68
2021/06/19 11:26:02;;;;;;;2.20;1.02;;;;;;;;;;8357185;28;20059;-67
2021/06/19 11:30:08;;;;;;;2.90;0.98;;;;;;;;;;8357165;28;20055;-68
2021/06/19 11:34:43;;;;;;;4.35;1.15;;;;;;;;;;8354974;28;20339;-68
2021/06/19 11:38:55;;;;;;;;;;;;;;;;;;8356305;28;20496;-67
2021/06/19 11:43:28;;;;;;;2.20;1.10;;;;;;;;;;8356522;28;20368;-68
2021/06/19 11:47:34;;;;;;;1.92;1.40;;;;;;;;;;8355377;28;20447;-67
2021/06/19 11:51:39;;;;;;;3.95;1.00;;;;;;;;;;8356268;28;20416;-68
2021/06/19 11:56:25;;;;;;;2.40;1.10;;;;;;;;;;8356499;28;20499;-68
2021/06/19 12:00:30;;;;;;;2.80;1.08;;;;;;;;;;8355045;28;20366;-68
2021/06/19 12:04:36;;;;;;;4.18;1.08;;;;;;;;;;8357703;28;20471;-67
2021/06/19 12:08:42;;;;;;;4.07;1.52;;;;;;;;;;8356403;28;20370;-68
2021/06/19 12:13:06;;;;;;;2.20;1.10;;;;;;;;;;8356234;28;20487;-68
2021/06/19 12:17:15;;;;;;;11.88;1.67;;;;;;;;;;8354312;28;20461;-67
2021/06/19 12:21:20;;;;;;;1.80;1.10;;;;;;;;;;8355132;28;20073;-68
2021/06/19 12:25:36;;;;;;;1.85;1.15;;;;;;;;;;8355567;28;20069;-68
2021/06/19 12:29:58;;;;;;;2.72;1.20;;;;;;;;;;8353640;28;20390;-68
2021/06/19 12:34:03;;;;;;;4.10;1.60;;;;;;;;;;8350436;28;20351;-69
2021/06/19 12:38:09;;;;;;;6.57;1.52;;;;;;;;;;8353724;28;20373;-67
2021/06/19 12:42:36;;;;;;;1.70;1.20;;;;;;;;;;8355653;28;20461;-67
2021/06/19 12:46:42;;;;;;;4.18;1.50;;;;;;;;;;8354574;28;20473;-68
2021/06/19 12:50:48;;;;;;;2.42;1.10;;;;;;;;;;8359102;28;20450;-68
2021/06/19 12:55:14;;;;;;;2.38;1.25;;;;;;;;;;8361956;28;20462;-68
2021/06/19 12:59:20;;;;;;;4.03;1.52;;;;;;;;;;8361890;28;20482;-68
2021/06/19 13:03:48;;;;;;;2.67;1.35;;;;;;;;;;8362261;28;20332;-67
2021/06/19 13:08:11;;;;;;;2.42;1.33;;;;;;;;;;8359698;28;20069;-69
2021/06/19 13:12:22;;;;;;;1.90;1.40;;;;;;;;;;8361357;28;20398;-68
2021/06/19 13:16:37;;;;;;;4.93;1.50;;;;;;;;;;8361203;28;20359;-68
2021/06/19 13:20:42;;;;;;;2.85;1.20;;;;;;;;;;8360799;28;20075;-67
2021/06/19 13:24:59;;;;;;;3.58;1.13;;;;;;;;;;8360777;28;20408;-67
2021/06/19 13:29:08;;;;;;;2.95;1.60;;;;;;;;;;8359324;28;20446;-67
2021/06/19 13:33:13;;;;;;;2.90;1.40;;;;;;;;;;8359676;28;20051;-68
2021/06/19 13:37:17;;;;;;;2.25;1.15;;;;;;;;;;8358832;28;20354;-68
2021/06/19 13:41:26;;;;;;;3.80;1.58;;;;;;;;;;8360570;28;20353;-67
2021/06/19 13:45:32;;;;;;;11.77;1.60;;;;;;;;;;8358181;28;20462;-68
2021/06/19 13:49:39;;;;;;;3.35;1.25;;;;;;;;;;8358607;28;20484;-67
2021/06/19 13:53:48;;;;;;;2.97;1.70;;;;;;;;;;8362638;28;20446;-67
2021/06/19 13:57:53;;;;;;;2.17;1.40;;;;;;;;;;8358351;28;20402;-67
2021/06/19 14:01:58;;;;;;;1.42;1.23;;;;;;;;;;8359584;28;20358;-68
2021/06/19 14:06:09;;;;;;;2.63;1.35;;;;;;;;;;8359852;27;20355;-67
2021/06/19 14:10:14;;;;;;;1.83;1.35;;;;;;;;;;8358639;28;20078;-67
2021/06/19 14:14:20;;;;;;;3.17;1.45;;;;;;;;;;8357433;28;20052;-68
2021/06/19 14:18:25;;;;;;;6.70;1.40;;;;;;;;;;8340743;28;20378;-68
2021/06/19 14:22:31;;;;;;;3.58;1.80;;;;;;;;;;8359013;28;20378;-67
2021/06/19 14:26:37;;;;;;;5.32;1.83;;;;;;;;;;8358269;28;20400;-67
2021/06/19 14:30:42;;;;;;;3.47;1.30;;;;;;;;;;8360703;28;20482;-70
2021/06/19 14:34:48;;;;;;;6.22;1.70;;;;;;;;;;8359867;28;20340;-67
2021/06/19 14:38:54;;;;;;;2.60;1.40;;;;;;;;;;8356744;28;20389;-66
2021/06/19 14:43:00;;;;;;;4.28;1.67;;;;;;;;;;8359873;28;20469;-67
2021/06/19 14:47:05;;;;;;;4.47;1.67;;;;;;;;;;8359677;28;20535;-67
2021/06/19 14:51:11;;;;;;;6.90;1.67;;;;;;;;;;8358619;28;20470;-67
2021/06/19 14:55:18;;;;;;;3.33;2.10;;;;;;;;;;8358677;28;20470;-67
2021/06/19 14:59:24;;;;;;;2.80;1.92;;;;;;;;;;8357792;28;20360;-68
2021/06/19 15:03:29;;;;;;;2.97;1.80;;;;;;;;;;8356963;28;20369;-67
2021/06/19 15:07:36;;;;;;;10.38;3.55;;;;;;;;;;8357697;28;20044;-67
2021/06/19 15:11:41;;;;;;;2.40;1.80;;;;;;;;;;8359065;28;20048;-67
2021/06/19 15:15:47;;;;;;;6.97;2.05;;;;;;;;;;8356376;28;20354;-68
2021/06/19 15:19:52;;;;;;;2.33;1.58;;;;;;;;;;8356131;28;20374;-67
2021/06/19 15:23:58;;;;;;;4.72;1.80;;;;;;;;;;8357853;28;20351;-67
2021/06/19 15:28:04;;;;;;;5.53;1.90;;;;;;;;;;8357829;28;20489;-67
2021/06/19 15:32:10;;;;;;;11.80;2.20;;;;;;;;;;8358272;28;20530;-67
2021/06/19 15:36:17;;;;;;;4.88;2.10;;;;;;;;;;8338637;28;20373;-67
2021/06/19 15:40:21;;;;;;;6.43;2.15;;;;;;;;;;8358195;28;20370;-67
2021/06/19 15:44:26;;;;;;;3.10;1.58;;;;;;;;;;8358403;28;20389;-67
2021/06/19 15:48:32;;;;;;;4.78;2.15;;;;;;;;;;8355032;28;20404;-67
2021/06/19 15:52:37;;;;;;;11.70;2.85;;;;;;;;;;8354662;28;20405;-67
2021/06/19 15:56:44;;;;;;;5.63;2.33;;;;;;;;;;8355257;28;20121;-67
2021/06/19 16:00:49;;;;;;;2.63;1.77;;;;;;;;;;8358665;28;20470;-67
2021/06/19 16:04:55;;;;;;;3.55;1.92;;;;;;;;;;8358020;28;20370;-68
2021/06/19 16:09:00;;;;;;;4.47;1.98;;;;;;;;;;8356138;28;20069;-67
2021/06/19 16:13:06;;;;;;;2.35;1.70;;;;;;;;;;8356281;28;20397;-67
2021/06/19 16:17:12;;;;;;;6.60;2.70;;;;;;;;;;8354800;28;20489;-67
2021/06/19 16:21:17;;;;;;;4.45;1.80;;;;;;;;;;8354133;28;20381;-67
2021/06/19 16:25:22;;;;;;;3.75;2.08;;;;;;;;;;8358965;28;20481;-67
2021/06/19 16:29:30;;;;;;;5.28;2.08;;;;;;;;;;8362398;28;20377;-67
2021/06/19 16:33:35;;;;;;;;;;;;;;;;;;8362790;28;20459;-67
2021/06/19 16:37:40;;;;;;;3.28;1.95;;;;;;;;;;8361801;28;19919;-69
2021/06/19 16:41:46;;;;;;;4.60;2.40;;;;;;;;;;8362224;28;20486;-67
2021/06/19 16:45:51;;;;;;;8.57;2.40;;;;;;;;;;8361120;28;20486;-68
2021/06/19 16:49:56;;;;;;;2.58;1.88;;;;;;;;;;8360007;28;20044;-68
2021/06/19 16:54:01;;;;;;;2.78;1.67;;;;;;;;;;8361293;28;20439;-68
2021/06/19 16:58:07;;;;;;;8.05;1.90;;;;;;;;;;8361895;28;20332;-67
2021/06/19 17:02:12;;;;;;;2.28;1.90;;;;;;;;;;8361675;28;20484;-67
2021/06/19 17:06:18;;;;;;;3.70;2.08;;;;;;;;;;8361669;28;20374;-67
2021/06/19 17:10:23;;;;;;;7.90;2.10;;;;;;;;;;8361582;28;20493;-67
2021/06/19 17:14:30;;;;;;;3.93;2.00;;;;;;;;;;8360564;28;20478;-68
2021/06/19 17:18:38;;;;;;;8.85;2.55;;;;;;;;;;8359565;28;20478;-66
2021/06/19 17:22:43;;;;;;;2.73;2.00;;;;;;;;;;8361642;28;20077;-67
2021/06/19 17:26:48;;;;;;;5.03;2.10;;;;;;;;;;8362739;28;20792;-67
2021/06/19 17:30:53;;;;;;;5.78;3.25;;;;;;;;;;8362549;28;20451;-67
2021/06/19 17:34:59;;;;;;;3.17;2.47;;;;;;;;;;8358705;28;20383;-67
2021/06/19 17:39:06;;;;;;;6.23;4.77;;;;;;;;;;8361936;28;20462;-67
2021/06/19 17:43:12;;;;;;;9.35;3.35;;;;;;;;;;8341926;28;20350;-67
2021/06/19 17:47:18;;;;;;;8.23;2.45;;;;;;;;;;8359337;28;20044;-68
2021/06/19 17:51:23;;;;;;;6.13;2.50;;;;;;;;;;8359978;28;20486;-67
2021/06/19 17:55:28;;;;;;;6.68;2.50;;;;;;;;;;8358778;28;20078;-67
2021/06/19 17:59:33;;;;;;;4.78;2.50;;;;;;;;;;8357662;28;20389;-67
2021/06/19 18:03:39;;;;;;;5.53;2.50;;;;;;;;;;8356743;28;20467;-67
2021/06/19 18:07:45;;;;;;;3.70;2.35;;;;;;;;;;8359270;28;20047;-67
2021/06/19 18:11:54;;;;;;;3.80;2.30;;;;;;;;;;8359620;28;20455;-67
2021/06/19 18:16:00;;;;;;;7.55;2.55;;;;;;;;;;8359051;28;20386;-67
2021/06/19 18:20:06;;;;;;;3.35;2.30;;;;;;;;;;8358462;28;20386;-68
2021/06/19 18:24:12;;;;;;;3.53;2.38;;;;;;;;;;8358260;28;20073;-67
2021/06/19 18:28:17;;;;;;;5.95;2.42;;;;;;;;;;8360658;28;20355;-67
2021/06/19 18:32:23;;;;;;;9.55;5.47;;;;;;;;;;8358717;28;20426;-68
2021/06/19 18:36:29;;;;;;;8.13;5.20;;;;;;;;;;8357667;28;20378;-67
2021/06/19 18:40:46;;;;;;;10.90;3.80;;;;;;;;;;8358857;28;20375;-67
2021/06/19 18:44:51;;;;;;;8.40;4.40;;;;;;;;;;8357595;28;20070;-68
2021/06/19 18:48:55;;;;;;;19.75;11.07;;;;;;;;;;8357177;28;20081;-68
2021/06/19 18:53:00;;;;;;;4.93;2.55;;;;;;;;;;8358459;28;20047;-67
2021/06/19 18:57:05;;;;;;;6.43;3.20;;;;;;;;;;8360137;28;20073;-67
2021/06/19 19:01:11;;;;;;;3.95;2.30;;;;;;;;;;8357604;28;20496;-68
2021/06/19 19:05:16;;;;;;;7.50;2.45;;;;;;;;;;8360250;28;20782;-68
2021/06/19 19:09:22;;;;;;;4.47;2.55;;;;;;;;;;8356495;28;20501;-67
2021/06/19 19:13:28;;;;;;;12.90;2.67;;;;;;;;;;8355905;28;20374;-70
2021/06/19 19:17:33;;;;;;;5.07;2.25;;;;;;;;;;8356571;28;20055;-68
2021/06/19 19:21:39;;;;;;;3.67;2.28;;;;;;;;;;8355980;28;20378;-67
2021/06/19 19:25:44;;;;;;;4.30;2.08;;;;;;;;;;8356907;28;20371;-67
2021/06/19 19:29:49;;;;;;;4.22;2.38;;;;;;;;;;8356644;28;20408;-66
2021/06/19 19:33:55;;;;;;;3.47;2.08;;;;;;;;;;8355001;28;20512;-67
2021/06/19 19:38:01;;;;;;;7.30;2.30;;;;;;;;;;8355542;28;20347;-67
2021/06/19 19:42:09;;;;;;;5.07;2.33;;;;;;;;;;8356052;28;20341;-67
2021/06/19 19:46:16;;;;;;;;;;;;;;;;;;8355387;28;20781;-68
2021/06/19 19:50:21;;;;;;;7.28;2.40;;;;;;;;;;8360159;28;20219;-67
2021/06/19 19:54:28;;;;;;;4.32;2.17;;;;;;;;;;8354696;28;20204;-67
2021/06/19 19:58:35;;;;;;;5.03;2.70;;;;;;;;;;8354267;28;20355;-68
2021/06/19 20:02:40;;;;;;;9.48;3.13;;;;;;;;;;8356159;28;20464;-67
2021/06/19 20:06:45;;;;;;;3.47;2.38;;;;;;;;;;8356762;28;20489;-67
2021/06/19 20:10:51;;;;;;;3.60;2.95;;;;;;;;;;8356552;28;20382;-68
2021/06/19 20:14:57;;;;;;;5.05;2.53;;;;;;;;;;8356050;28;20082;-67
2021/06/19 20:19:02;;;;;;;4.97;3.08;;;;;;;;;;8355010;28;20471;-70
2021/06/19 20:23:08;;;;;;;6.90;3.95;;;;;;;;;;8354045;28;20362;-67
2021/06/19 20:27:17;;;;;;;5.13;3.20;;;;;;;;;;8354842;28;20415;-67
2021/06/19 20:31:23;;;;;;;4.05;2.90;;;;;;;;;;8355572;28;20451;-67
2021/06/19 20:35:27;;;;;;;4.80;3.03;;;;;;;;;;8355320;28;20453;-67
2021/06/19 20:39:32;;;;;;;6.25;3.25;;;;;;;;;;8356464;28;20451;-67
2021/06/19 20:43:38;;;;;;;8.32;5.60;;;;;;;;;;8354493;28;20055;-67
2021/06/19 20:47:44;;;;;;;7.43;3.05;;;;;;;;;;8355450;28;20497;-67
2021/06/19 20:51:48;;;;;;;5.97;2.95;;;;;;;;;;8355726;28;20488;-67
2021/06/19 20:55:53;;;;;;;9.48;3.15;;;;;;;;;;8353004;28;20462;-67
2021/06/19 21:00:00;;;;;;;6.47;2.97;;;;;;;;;;8355495;28;20455;-67
2021/06/19 21:04:05;;;;;;;4.63;3.03;;;;;;;;;;8355610;28;20044;-68
2021/06/19 21:08:10;;;;;;;4.93;2.83;;;;;;;;;;8355802;28;20362;-67
2021/06/19 21:12:20;;;;;;;4.20;3.20;;;;;;;;;;8359001;28;20462;-67
2021/06/19 21:16:27;;;;;;;3.67;2.78;;;;;;;;;;8361224;28;20482;-67
2021/06/19 21:20:31;;;;;;;8.20;3.08;;;;;;;;;;8363751;28;20431;-69
2021/06/19 21:24:37;;;;;;;3.97;3.10;;;;;;;;;;8360331;28;20197;-69
2021/06/19 21:29:29;;;;;;;4.40;3.03;;;;;;;;;;8361204;28;20454;-69
2021/06/19 21:33:35;;;;;;;6.35;3.42;;;;;;;;;;8360504;28;20394;-69
2021/06/19 21:37:41;;;;;;;6.80;3.95;;;;;;;;;;8358609;28;20453;-69
2021/06/19 21:41:50;;;;;;;5.97;3.30;;;;;;;;;;8360712;27;20459;-68
2021/06/19 21:45:56;;;;;;;10.60;3.67;;;;;;;;;;8361382;28;20478;-69
2021/06/19 21:50:01;;;;;;;4.82;3.13;;;;;;;;;;8343135;28;20371;-68
2021/06/19 21:54:07;;;;;;;6.03;3.20;;;;;;;;;;8361233;28;20405;-68
2021/06/19 21:58:12;;;;;;;11.43;3.38;;;;;;;;;;8360846;28;20362;-68
2021/06/19 22:02:18;;;;;;;5.32;3.63;;;;;;;;;;8359556;28;20479;-68
2021/06/19 22:06:24;;;;;;;6.32;3.60;;;;;;;;;;8360028;27;20482;-68
2021/06/19 22:10:32;;;;;;;5.10;3.25;;;;;;;;;;8360239;28;20385;-69
2021/06/19 22:14:37;;;;;;;6.93;3.08;;;;;;;;;;8358579;28;20414;-69
2021/06/19 22:18:43;;;;;;;7.80;3.75;;;;;;;;;;8358112;28;20457;-68
2021/06/19 22:22:48;;;;;;;9.75;3.63;;;;;;;;;;8358276;28;20519;-68
2021/06/19 22:26:53;;;;;;;6.05;3.53;;;;;;;;;;8360168;28;20439;-68
2021/06/19 22:30:58;;;;;;;8.25;3.60;;;;;;;;;;8359220;28;20707;-68
2021/06/19 22:35:11;;;;;;;5.85;3.10;;;;;;;;;;8359096;28;20382;-68
2021/06/19 22:39:16;;;;;;;9.27;3.65;;;;;;;;;;8359454;28;20074;-68
2021/06/19 22:43:22;;;;;;;10.65;3.10;;;;;;;;;;8361672;28;20425;-68
2021/06/19 22:47:26;;;;;;;4.97;3.50;;;;;;;;;;8358935;28;20465;-68
2021/06/19 22:51:32;;;;;;;7.32;3.50;;;;;;;;;;8359637;28;20508;-68
2021/06/19 22:55:38;;;;;;;4.93;3.33;;;;;;;;;;8356740;28;20048;-68
2021/06/19 22:59:43;;;;;;;9.93;3.40;;;;;;;;;;8360692;28;20442;-68
2021/06/19 23:03:48;;;;;;;5.35;3.25;;;;;;;;;;8358635;28;20466;-68
2021/06/19 23:07:54;;;;;;;9.05;3.40;;;;;;;;;;8357731;28;20490;-68
2021/06/19 23:12:00;;;;;;;7.82;3.30;;;;;;;;;;8357557;28;20482;-68
2021/06/19 23:16:04;;;;;;;6.43;3.78;;;;;;;;;;8355666;28;20484;-69
2021/06/19 23:20:13;;;;;;;9.70;3.78;;;;;;;;;;8357977;27;20406;-70
2021/06/19 23:24:18;;;;;;;4.97;3.60;;;;;;;;;;8358145;28;20469;-68
2021/06/19 23:28:24;;;;;;;5.78;3.40;;;;;;;;;;8357056;28;20047;-69
2021/06/19 23:32:30;;;;;;;5.60;3.22;;;;;;;;;;8358194;28;20056;-68
2021/06/19 23:36:36;;;;;;;5.70;3.50;;;;;;;;;;8357206;28;20378;-69
2021/06/19 23:40:41;;;;;;;5.22;3.45;;;;;;;;;;8357720;28;20496;-69
2021/06/19 23:44:46;;;;;;;10.60;3.63;;;;;;;;;;8357813;28;20496;-69
2021/06/19 23:48:51;;;;;;;4.78;3.42;;;;;;;;;;8356988;28;20471;-69
2021/06/19 23:52:57;;;;;;;6.03;4.00;;;;;;;;;;8356929;28;20070;-69
2021/06/19 23:57:01;;;;;;;7.95;4.28;;;;;;;;;;8354814;28;20048;-68
